sensor_id;sensor_type;location;lat;lon;timestamp;P1;durP1;ratioP1;P2;durP2;ratioP2
48215;SDS011;34005;48.844;10.098;2024-01-06T00:01:23;12.85;;;6.70;;
48215;SDS011;34005;48.844;10.098;2024-01-06T00:03:51;8.30;;;5.85;;
48215;SDS011;34005;48.844;10.098;2024-01-06T00:06:18;9.00;;;5.50;;
48215;SDS011;34005;48.844;10.098;2024-01-06T00:08:46;9.30;;;5.78;;
48215;SDS011;34005;48.844;10.098;2024-01-06T00:11:21;7.93;;;5.40;;
48215;SDS011;34005;48.844;10.098;2024-01-06T00:13:49;6.15;;;5.03;;
48215;SDS011;34005;48.844;10.098;2024-01-06T00:16:16;13.38;;;5.32;;
48215;SDS011;34005;48.844;10.098;2024-01-06T00:18:45;8.13;;;5.38;;
48215;SDS011;34005;48.844;10.098;2024-01-06T00:21:12;6.00;;;4.97;;
48215;SDS011;34005;48.844;10.098;2024-01-06T00:23:40;8.82;;;4.35;;
48215;SDS011;34005;48.844;10.098;2024-01-06T00:26:09;7.63;;;4.22;;
48215;SDS011;34005;48.844;10.098;2024-01-06T00:28:38;7.75;;;4.60;;
48215;SDS011;34005;48.844;10.098;2024-01-06T00:31:07;8.32;;;4.85;;
48215;SDS011;34005;48.844;10.098;2024-01-06T00:33:34;9.13;;;4.90;;
48215;SDS011;34005;48.844;10.098;2024-01-06T00:36:02;7.05;;;4.60;;
48215;SDS011;34005;48.844;10.098;2024-01-06T00:38:30;6.97;;;4.38;;
48215;SDS011;34005;48.844;10.098;2024-01-06T00:40:58;9.32;;;4.55;;
48215;SDS011;34005;48.844;10.098;2024-01-06T00:43:26;6.32;;;4.88;;
48215;SDS011;34005;48.844;10.098;2024-01-06T00:45:54;6.13;;;4.25;;
48215;SDS011;34005;48.844;10.098;2024-01-06T00:48:22;7.82;;;4.95;;
48215;SDS011;34005;48.844;10.098;2024-01-06T00:50:50;7.25;;;4.90;;
48215;SDS011;34005;48.844;10.098;2024-01-06T00:53:18;8.68;;;5.75;;
48215;SDS011;34005;48.844;10.098;2024-01-06T00:55:46;12.85;;;6.10;;
48215;SDS011;34005;48.844;10.098;2024-01-06T00:58:14;8.88;;;5.60;;
48215;SDS011;34005;48.844;10.098;2024-01-06T01:00:41;10.68;;;6.90;;
48215;SDS011;34005;48.844;10.098;2024-01-06T01:03:10;13.23;;;6.28;;
48215;SDS011;34005;48.844;10.098;2024-01-06T01:05:38;11.43;;;6.22;;
48215;SDS011;34005;48.844;10.098;2024-01-06T01:08:06;9.60;;;6.05;;
48215;SDS011;34005;48.844;10.098;2024-01-06T01:10:33;14.07;;;7.35;;
48215;SDS011;34005;48.844;10.098;2024-01-06T01:13:01;11.38;;;7.00;;
48215;SDS011;34005;48.844;10.098;2024-01-06T01:15:29;13.05;;;6.82;;
48215;SDS011;34005;48.844;10.098;2024-01-06T01:17:56;10.18;;;5.88;;
48215;SDS011;34005;48.844;10.098;2024-01-06T01:20:25;13.05;;;6.45;;
48215;SDS011;34005;48.844;10.098;2024-01-06T01:22:53;18.88;;;9.43;;
48215;SDS011;34005;48.844;10.098;2024-01-06T01:25:20;15.40;;;8.07;;
48215;SDS011;34005;48.844;10.098;2024-01-06T01:27:48;10.68;;;7.38;;
48215;SDS011;34005;48.844;10.098;2024-01-06T01:30:15;10.73;;;5.90;;
48215;SDS011;34005;48.844;10.098;2024-01-06T01:32:43;9.93;;;6.25;;
48215;SDS011;34005;48.844;10.098;2024-01-06T01:35:11;9.32;;;5.00;;
48215;SDS011;34005;48.844;10.098;2024-01-06T01:37:40;6.65;;;5.00;;
48215;SDS011;34005;48.844;10.098;2024-01-06T01:40:08;11.90;;;5.07;;
48215;SDS011;34005;48.844;10.098;2024-01-06T01:42:36;8.35;;;4.45;;
48215;SDS011;34005;48.844;10.098;2024-01-06T01:45:04;8.18;;;4.63;;
48215;SDS011;34005;48.844;10.098;2024-01-06T01:47:32;9.43;;;4.30;;
48215;SDS011;34005;48.844;10.098;2024-01-06T01:50:00;9.85;;;4.90;;
48215;SDS011;34005;48.844;10.098;2024-01-06T01:52:28;8.15;;;3.88;;
48215;SDS011;34005;48.844;10.098;2024-01-06T01:54:58;5.97;;;3.72;;
48215;SDS011;34005;48.844;10.098;2024-01-06T01:57:26;5.90;;;3.95;;
48215;SDS011;34005;48.844;10.098;2024-01-06T01:59:55;7.03;;;3.50;;
48215;SDS011;34005;48.844;10.098;2024-01-06T02:02:23;7.47;;;4.10;;
48215;SDS011;34005;48.844;10.098;2024-01-06T02:04:50;4.95;;;3.83;;
48215;SDS011;34005;48.844;10.098;2024-01-06T02:07:18;6.35;;;4.25;;
48215;SDS011;34005;48.844;10.098;2024-01-06T02:09:46;5.97;;;3.05;;
48215;SDS011;34005;48.844;10.098;2024-01-06T02:12:15;5.93;;;3.42;;
48215;SDS011;34005;48.844;10.098;2024-01-06T02:14:42;5.43;;;2.80;;
48215;SDS011;34005;48.844;10.098;2024-01-06T02:17:10;3.65;;;3.00;;
48215;SDS011;34005;48.844;10.098;2024-01-06T02:19:37;3.63;;;2.55;;
48215;SDS011;34005;48.844;10.098;2024-01-06T02:22:07;6.38;;;3.22;;
48215;SDS011;34005;48.844;10.098;2024-01-06T02:24:34;3.08;;;2.60;;
48215;SDS011;34005;48.844;10.098;2024-01-06T02:27:02;6.57;;;3.25;;
48215;SDS011;34005;48.844;10.098;2024-01-06T02:29:30;5.50;;;2.88;;
48215;SDS011;34005;48.844;10.098;2024-01-06T02:31:58;3.28;;;2.65;;
48215;SDS011;34005;48.844;10.098;2024-01-06T02:34:25;4.50;;;2.83;;
48215;SDS011;34005;48.844;10.098;2024-01-06T02:36:53;8.13;;;3.35;;
48215;SDS011;34005;48.844;10.098;2024-01-06T02:39:22;4.30;;;2.83;;
48215;SDS011;34005;48.844;10.098;2024-01-06T02:41:50;4.90;;;3.03;;
48215;SDS011;34005;48.844;10.098;2024-01-06T02:44:17;5.63;;;2.97;;
48215;SDS011;34005;48.844;10.098;2024-01-06T02:46:45;6.55;;;4.05;;
48215;SDS011;34005;48.844;10.098;2024-01-06T02:49:12;6.55;;;4.22;;
48215;SDS011;34005;48.844;10.098;2024-01-06T02:51:40;7.57;;;3.45;;
48215;SDS011;34005;48.844;10.098;2024-01-06T02:54:07;5.90;;;3.28;;
48215;SDS011;34005;48.844;10.098;2024-01-06T02:56:36;8.02;;;3.85;;
48215;SDS011;34005;48.844;10.098;2024-01-06T02:59:05;5.65;;;3.53;;
48215;SDS011;34005;48.844;10.098;2024-01-06T03:01:32;6.47;;;4.57;;
48215;SDS011;34005;48.844;10.098;2024-01-06T03:04:00;5.40;;;4.22;;
48215;SDS011;34005;48.844;10.098;2024-01-06T03:06:28;6.20;;;4.45;;
48215;SDS011;34005;48.844;10.098;2024-01-06T03:08:55;6.82;;;4.22;;
48215;SDS011;34005;48.844;10.098;2024-01-06T03:11:23;9.27;;;3.90;;
48215;SDS011;34005;48.844;10.098;2024-01-06T03:13:52;7.20;;;3.90;;
48215;SDS011;34005;48.844;10.098;2024-01-06T03:16:19;6.20;;;4.03;;
48215;SDS011;34005;48.844;10.098;2024-01-06T03:18:47;8.65;;;4.05;;
48215;SDS011;34005;48.844;10.098;2024-01-06T03:21:18;7.60;;;3.83;;
48215;SDS011;34005;48.844;10.098;2024-01-06T03:23:47;5.57;;;3.60;;
48215;SDS011;34005;48.844;10.098;2024-01-06T03:26:16;4.63;;;3.55;;
48215;SDS011;34005;48.844;10.098;2024-01-06T03:28:44;6.82;;;3.92;;
48215;SDS011;34005;48.844;10.098;2024-01-06T03:31:13;6.70;;;3.70;;
48215;SDS011;34005;48.844;10.098;2024-01-06T03:33:41;5.00;;;3.25;;
48215;SDS011;34005;48.844;10.098;2024-01-06T03:36:08;5.68;;;3.17;;
48215;SDS011;34005;48.844;10.098;2024-01-06T03:38:36;5.35;;;3.33;;
48215;SDS011;34005;48.844;10.098;2024-01-06T03:41:04;4.60;;;3.60;;
48215;SDS011;34005;48.844;10.098;2024-01-06T03:43:31;7.05;;;3.50;;
48215;SDS011;34005;48.844;10.098;2024-01-06T03:45:59;7.72;;;4.15;;
48215;SDS011;34005;48.844;10.098;2024-01-06T03:48:28;7.07;;;3.97;;
48215;SDS011;34005;48.844;10.098;2024-01-06T03:50:56;7.00;;;3.80;;
48215;SDS011;34005;48.844;10.098;2024-01-06T03:53:24;7.38;;;3.80;;
48215;SDS011;34005;48.844;10.098;2024-01-06T03:55:52;5.65;;;3.75;;
48215;SDS011;34005;48.844;10.098;2024-01-06T03:58:20;7.40;;;4.97;;
48215;SDS011;34005;48.844;10.098;2024-01-06T04:00:47;8.98;;;4.35;;
48215;SDS011;34005;48.844;10.098;2024-01-06T04:03:15;6.95;;;4.00;;
48215;SDS011;34005;48.844;10.098;2024-01-06T04:05:44;7.45;;;3.97;;
48215;SDS011;34005;48.844;10.098;2024-01-06T04:08:12;9.55;;;4.50;;
48215;SDS011;34005;48.844;10.098;2024-01-06T04:10:39;6.72;;;3.90;;
48215;SDS011;34005;48.844;10.098;2024-01-06T04:13:07;4.68;;;3.55;;
48215;SDS011;34005;48.844;10.098;2024-01-06T04:15:35;5.72;;;3.78;;
48215;SDS011;34005;48.844;10.098;2024-01-06T04:18:03;5.30;;;3.97;;
48215;SDS011;34005;48.844;10.098;2024-01-06T04:20:32;9.60;;;4.97;;
48215;SDS011;34005;48.844;10.098;2024-01-06T04:23:01;9.48;;;4.68;;
48215;SDS011;34005;48.844;10.098;2024-01-06T04:25:28;14.20;;;5.97;;
48215;SDS011;34005;48.844;10.098;2024-01-06T04:27:56;10.20;;;5.22;;
48215;SDS011;34005;48.844;10.098;2024-01-06T04:30:24;7.13;;;4.50;;
48215;SDS011;34005;48.844;10.098;2024-01-06T04:32:52;6.55;;;4.60;;
48215;SDS011;34005;48.844;10.098;2024-01-06T04:35:19;10.35;;;4.35;;
48215;SDS011;34005;48.844;10.098;2024-01-06T04:37:48;7.28;;;4.22;;
48215;SDS011;34005;48.844;10.098;2024-01-06T04:40:17;6.90;;;4.43;;
48215;SDS011;34005;48.844;10.098;2024-01-06T04:42:44;7.05;;;4.63;;
48215;SDS011;34005;48.844;10.098;2024-01-06T04:45:12;7.25;;;4.70;;
48215;SDS011;34005;48.844;10.098;2024-01-06T04:47:39;7.32;;;4.20;;
48215;SDS011;34005;48.844;10.098;2024-01-06T04:50:07;6.88;;;4.50;;
48215;SDS011;34005;48.844;10.098;2024-01-06T04:52:35;6.45;;;4.60;;
48215;SDS011;34005;48.844;10.098;2024-01-06T04:55:03;6.68;;;4.45;;
48215;SDS011;34005;48.844;10.098;2024-01-06T04:57:32;5.75;;;4.75;;
48215;SDS011;34005;48.844;10.098;2024-01-06T05:00:00;8.40;;;4.45;;
48215;SDS011;34005;48.844;10.098;2024-01-06T05:02:28;8.20;;;4.30;;
48215;SDS011;34005;48.844;10.098;2024-01-06T05:05:23;6.93;;;4.20;;
48215;SDS011;34005;48.844;10.098;2024-01-06T05:08:59;7.50;;;4.20;;
48215;SDS011;34005;48.844;10.098;2024-01-06T05:11:59;7.47;;;4.43;;
48215;SDS011;34005;48.844;10.098;2024-01-06T08:09:53;4.45;;;2.88;;
48215;SDS011;34005;48.844;10.098;2024-01-06T08:14:52;7.82;;;2.88;;
48215;SDS011;34005;48.844;10.098;2024-01-06T08:17:25;5.93;;;2.70;;
48215;SDS011;34005;48.844;10.098;2024-01-06T08:19:59;5.38;;;2.75;;
48215;SDS011;34005;48.844;10.098;2024-01-06T08:22:28;5.22;;;3.40;;
48215;SDS011;34005;48.844;10.098;2024-01-06T08:25:00;5.32;;;3.10;;
48215;SDS011;34005;48.844;10.098;2024-01-06T08:27:29;7.88;;;3.63;;
48215;SDS011;34005;48.844;10.098;2024-01-06T08:29:58;7.03;;;3.33;;
48215;SDS011;34005;48.844;10.098;2024-01-06T08:32:27;5.70;;;3.50;;
48215;SDS011;34005;48.844;10.098;2024-01-06T08:34:58;7.72;;;4.00;;
48215;SDS011;34005;48.844;10.098;2024-01-06T08:37:27;4.88;;;3.42;;
48215;SDS011;34005;48.844;10.098;2024-01-06T08:40:02;8.13;;;2.72;;
48215;SDS011;34005;48.844;10.098;2024-01-06T08:42:31;6.32;;;3.35;;
48215;SDS011;34005;48.844;10.098;2024-01-06T08:44:59;4.68;;;3.05;;
48215;SDS011;34005;48.844;10.098;2024-01-06T08:47:27;5.30;;;3.83;;
48215;SDS011;34005;48.844;10.098;2024-01-06T08:49:55;6.90;;;3.55;;
48215;SDS011;34005;48.844;10.098;2024-01-06T08:52:23;8.32;;;3.55;;
48215;SDS011;34005;48.844;10.098;2024-01-06T08:54:52;6.72;;;3.45;;
48215;SDS011;34005;48.844;10.098;2024-01-06T08:57:21;8.10;;;4.18;;
48215;SDS011;34005;48.844;10.098;2024-01-06T08:59:49;8.13;;;3.35;;
48215;SDS011;34005;48.844;10.098;2024-01-06T09:02:18;7.45;;;4.00;;
48215;SDS011;34005;48.844;10.098;2024-01-06T09:04:46;6.15;;;3.67;;
48215;SDS011;34005;48.844;10.098;2024-01-06T09:07:13;7.88;;;3.50;;
48215;SDS011;34005;48.844;10.098;2024-01-06T09:09:43;5.18;;;3.25;;
48215;SDS011;34005;48.844;10.098;2024-01-06T09:12:11;5.00;;;3.15;;
48215;SDS011;34005;48.844;10.098;2024-01-06T09:14:40;6.57;;;3.42;;
48215;SDS011;34005;48.844;10.098;2024-01-06T09:17:07;4.70;;;2.95;;
48215;SDS011;34005;48.844;10.098;2024-01-06T09:19:35;8.95;;;4.35;;
48215;SDS011;34005;48.844;10.098;2024-01-06T09:22:03;3.70;;;3.25;;
48215;SDS011;34005;48.844;10.098;2024-01-06T09:24:31;6.03;;;3.40;;
48215;SDS011;34005;48.844;10.098;2024-01-06T09:27:00;5.03;;;2.85;;
48215;SDS011;34005;48.844;10.098;2024-01-06T09:29:31;3.33;;;2.88;;
48215;SDS011;34005;48.844;10.098;2024-01-06T09:32:00;4.90;;;3.20;;
48215;SDS011;34005;48.844;10.098;2024-01-06T09:34:28;5.75;;;2.85;;
48215;SDS011;34005;48.844;10.098;2024-01-06T09:36:56;9.95;;;2.97;;
48215;SDS011;34005;48.844;10.098;2024-01-06T09:39:23;6.88;;;2.95;;
48215;SDS011;34005;48.844;10.098;2024-01-06T09:41:54;6.28;;;2.40;;
48215;SDS011;34005;48.844;10.098;2024-01-06T09:44:21;4.50;;;2.53;;
48215;SDS011;34005;48.844;10.098;2024-01-06T09:46:49;5.55;;;2.80;;
48215;SDS011;34005;48.844;10.098;2024-01-06T09:49:20;5.38;;;2.80;;
48215;SDS011;34005;48.844;10.098;2024-01-06T09:51:50;5.43;;;3.13;;
48215;SDS011;34005;48.844;10.098;2024-01-06T09:54:22;3.40;;;3.08;;
48215;SDS011;34005;48.844;10.098;2024-01-06T09:56:51;5.25;;;2.70;;
48215;SDS011;34005;48.844;10.098;2024-01-06T09:59:22;5.97;;;3.35;;
48215;SDS011;34005;48.844;10.098;2024-01-06T10:01:50;4.97;;;2.50;;
48215;SDS011;34005;48.844;10.098;2024-01-06T10:04:20;3.15;;;2.22;;
48215;SDS011;34005;48.844;10.098;2024-01-06T10:06:50;5.80;;;2.70;;
48215;SDS011;34005;48.844;10.098;2024-01-06T10:09:18;4.43;;;2.60;;
48215;SDS011;34005;48.844;10.098;2024-01-06T10:11:54;3.97;;;2.28;;
48215;SDS011;34005;48.844;10.098;2024-01-06T10:14:23;3.13;;;2.50;;
48215;SDS011;34005;48.844;10.098;2024-01-06T10:16:51;4.80;;;2.20;;
48215;SDS011;34005;48.844;10.098;2024-01-06T10:19:21;3.63;;;2.05;;
48215;SDS011;34005;48.844;10.098;2024-01-06T10:21:51;5.25;;;3.25;;
48215;SDS011;34005;48.844;10.098;2024-01-06T10:24:19;4.30;;;2.10;;
48215;SDS011;34005;48.844;10.098;2024-01-06T10:26:47;2.65;;;2.20;;
48215;SDS011;34005;48.844;10.098;2024-01-06T10:29:16;3.00;;;2.40;;
48215;SDS011;34005;48.844;10.098;2024-01-06T10:31:44;2.72;;;1.85;;
48215;SDS011;34005;48.844;10.098;2024-01-06T10:34:22;3.83;;;1.90;;
48215;SDS011;34005;48.844;10.098;2024-01-06T10:36:56;3.00;;;2.13;;
48215;SDS011;34005;48.844;10.098;2024-01-06T10:39:23;2.67;;;1.67;;
48215;SDS011;34005;48.844;10.098;2024-01-06T10:41:51;5.15;;;2.55;;
48215;SDS011;34005;48.844;10.098;2024-01-06T10:44:19;3.80;;;2.47;;
48215;SDS011;34005;48.844;10.098;2024-01-06T10:46:48;4.25;;;3.15;;
48215;SDS011;34005;48.844;10.098;2024-01-06T10:49:19;3.15;;;2.78;;
48215;SDS011;34005;48.844;10.098;2024-01-06T10:51:49;4.07;;;2.90;;
48215;SDS011;34005;48.844;10.098;2024-01-06T10:54:19;4.50;;;3.00;;
48215;SDS011;34005;48.844;10.098;2024-01-06T10:56:49;3.42;;;2.65;;
48215;SDS011;34005;48.844;10.098;2024-01-06T10:59:19;2.42;;;2.22;;
48215;SDS011;34005;48.844;10.098;2024-01-06T11:01:51;4.93;;;2.97;;
48215;SDS011;34005;48.844;10.098;2024-01-06T11:04:22;5.45;;;2.72;;
48215;SDS011;34005;48.844;10.098;2024-01-06T11:06:52;5.00;;;2.30;;
48215;SDS011;34005;48.844;10.098;2024-01-06T11:09:21;6.03;;;3.17;;
48215;SDS011;34005;48.844;10.098;2024-01-06T11:11:53;6.53;;;3.97;;
48215;SDS011;34005;48.844;10.098;2024-01-06T11:14:23;5.60;;;3.85;;
48215;SDS011;34005;48.844;10.098;2024-01-06T11:17:48;6.22;;;3.22;;
48215;SDS011;34005;48.844;10.098;2024-01-06T12:27:49;3.22;;;2.83;;
48215;SDS011;34005;48.844;10.098;2024-01-06T12:33:04;3.00;;;2.17;;
48215;SDS011;34005;48.844;10.098;2024-01-06T12:35:37;2.92;;;2.58;;
48215;SDS011;34005;48.844;10.098;2024-01-06T12:38:06;3.88;;;2.53;;
48215;SDS011;34005;48.844;10.098;2024-01-06T12:40:36;3.53;;;2.58;;
48215;SDS011;34005;48.844;10.098;2024-01-06T12:43:04;4.22;;;2.42;;
48215;SDS011;34005;48.844;10.098;2024-01-06T12:45:32;3.97;;;2.38;;
48215;SDS011;34005;48.844;10.098;2024-01-06T12:48:00;2.88;;;2.42;;
48215;SDS011;34005;48.844;10.098;2024-01-06T12:50:27;2.60;;;2.40;;
48215;SDS011;34005;48.844;10.098;2024-01-06T12:52:56;2.95;;;2.65;;
48215;SDS011;34005;48.844;10.098;2024-01-06T12:55:24;5.55;;;3.28;;
48215;SDS011;34005;48.844;10.098;2024-01-06T12:57:51;4.97;;;3.58;;
48215;SDS011;34005;48.844;10.098;2024-01-06T13:00:19;4.00;;;3.13;;
48215;SDS011;34005;48.844;10.098;2024-01-06T13:02:47;3.67;;;3.13;;
48215;SDS011;34005;48.844;10.098;2024-01-06T13:05:14;4.97;;;3.22;;
48215;SDS011;34005;48.844;10.098;2024-01-06T13:07:42;5.50;;;3.85;;
48215;SDS011;34005;48.844;10.098;2024-01-06T13:10:11;7.20;;;3.53;;
48215;SDS011;34005;48.844;10.098;2024-01-06T13:12:38;4.00;;;3.60;;
48215;SDS011;34005;48.844;10.098;2024-01-06T13:15:06;2.95;;;2.67;;
48215;SDS011;34005;48.844;10.098;2024-01-06T13:17:37;3.63;;;2.75;;
48215;SDS011;34005;48.844;10.098;2024-01-06T13:20:05;3.10;;;2.70;;
48215;SDS011;34005;48.844;10.098;2024-01-06T13:22:34;2.63;;;2.13;;
48215;SDS011;34005;48.844;10.098;2024-01-06T13:25:01;2.58;;;2.28;;
48215;SDS011;34005;48.844;10.098;2024-01-06T13:27:34;2.25;;;1.85;;
48215;SDS011;34005;48.844;10.098;2024-01-06T13:30:02;4.65;;;2.80;;
48215;SDS011;34005;48.844;10.098;2024-01-06T13:32:31;3.20;;;2.70;;
48215;SDS011;34005;48.844;10.098;2024-01-06T13:34:59;2.60;;;2.40;;
48215;SDS011;34005;48.844;10.098;2024-01-06T13:37:30;3.78;;;2.33;;
48215;SDS011;34005;48.844;10.098;2024-01-06T13:39:58;6.22;;;2.63;;
48215;SDS011;34005;48.844;10.098;2024-01-06T13:42:26;3.42;;;2.72;;
48215;SDS011;34005;48.844;10.098;2024-01-06T13:48:12;3.22;;;2.70;;
48215;SDS011;34005;48.844;10.098;2024-01-06T13:50:43;3.40;;;2.85;;
48215;SDS011;34005;48.844;10.098;2024-01-06T13:53:14;2.63;;;2.42;;
48215;SDS011;34005;48.844;10.098;2024-01-06T13:55:43;3.38;;;3.08;;
48215;SDS011;34005;48.844;10.098;2024-01-06T13:58:11;3.10;;;2.42;;
48215;SDS011;34005;48.844;10.098;2024-01-06T14:00:39;3.17;;;2.72;;
48215;SDS011;34005;48.844;10.098;2024-01-06T14:03:06;3.63;;;3.25;;
48215;SDS011;34005;48.844;10.098;2024-01-06T14:05:35;2.47;;;2.28;;
48215;SDS011;34005;48.844;10.098;2024-01-06T14:08:04;4.38;;;2.72;;
48215;SDS011;34005;48.844;10.098;2024-01-06T14:10:32;3.25;;;2.42;;
48215;SDS011;34005;48.844;10.098;2024-01-06T14:13:00;2.67;;;2.47;;
48215;SDS011;34005;48.844;10.098;2024-01-06T14:15:27;2.67;;;2.45;;
48215;SDS011;34005;48.844;10.098;2024-01-06T14:17:57;2.13;;;1.92;;
48215;SDS011;34005;48.844;10.098;2024-01-06T14:20:25;2.28;;;2.05;;
48215;SDS011;34005;48.844;10.098;2024-01-06T14:22:55;3.42;;;2.50;;
48215;SDS011;34005;48.844;10.098;2024-01-06T14:25:24;3.05;;;2.75;;
48215;SDS011;34005;48.844;10.098;2024-01-06T14:27:52;4.32;;;3.08;;
48215;SDS011;34005;48.844;10.098;2024-01-06T14:30:19;3.30;;;3.00;;
48215;SDS011;34005;48.844;10.098;2024-01-06T14:32:47;3.78;;;2.85;;
48215;SDS011;34005;48.844;10.098;2024-01-06T14:35:15;3.03;;;2.72;;
48215;SDS011;34005;48.844;10.098;2024-01-06T14:37:42;3.55;;;2.72;;
48215;SDS011;34005;48.844;10.098;2024-01-06T14:40:14;3.20;;;2.90;;
48215;SDS011;34005;48.844;10.098;2024-01-06T14:42:43;3.35;;;2.80;;
48215;SDS011;34005;48.844;10.098;2024-01-06T14:45:10;5.82;;;3.08;;
48215;SDS011;34005;48.844;10.098;2024-01-06T14:47:38;3.63;;;3.10;;
48215;SDS011;34005;48.844;10.098;2024-01-06T14:52:48;3.00;;;2.70;;
48215;SDS011;34005;48.844;10.098;2024-01-06T14:55:17;4.00;;;3.60;;
48215;SDS011;34005;48.844;10.098;2024-01-06T14:57:46;3.63;;;3.00;;
48215;SDS011;34005;48.844;10.098;2024-01-06T15:00:13;3.60;;;2.80;;
48215;SDS011;34005;48.844;10.098;2024-01-06T15:02:41;3.72;;;3.20;;
48215;SDS011;34005;48.844;10.098;2024-01-06T15:05:12;3.63;;;3.28;;
48215;SDS011;34005;48.844;10.098;2024-01-06T15:07:40;3.03;;;2.80;;
48215;SDS011;34005;48.844;10.098;2024-01-06T15:10:08;5.97;;;3.70;;
48215;SDS011;34005;48.844;10.098;2024-01-06T15:12:40;4.32;;;3.45;;
48215;SDS011;34005;48.844;10.098;2024-01-06T15:15:07;4.53;;;3.80;;
48215;SDS011;34005;48.844;10.098;2024-01-06T15:17:35;10.93;;;6.40;;
48215;SDS011;34005;48.844;10.098;2024-01-06T15:20:04;6.75;;;4.95;;
48215;SDS011;34005;48.844;10.098;2024-01-06T15:22:32;10.93;;;6.03;;
48215;SDS011;34005;48.844;10.098;2024-01-06T15:25:03;7.10;;;5.13;;
48215;SDS011;34005;48.844;10.098;2024-01-06T15:27:33;6.07;;;4.53;;
48215;SDS011;34005;48.844;10.098;2024-01-06T15:30:03;5.90;;;4.03;;
48215;SDS011;34005;48.844;10.098;2024-01-06T15:32:34;5.95;;;4.93;;
48215;SDS011;34005;48.844;10.098;2024-01-06T15:35:02;6.82;;;4.85;;
48215;SDS011;34005;48.844;10.098;2024-01-06T15:37:30;9.10;;;5.47;;
48215;SDS011;34005;48.844;10.098;2024-01-06T15:39:58;9.15;;;6.00;;
48215;SDS011;34005;48.844;10.098;2024-01-06T15:42:26;9.70;;;5.50;;
48215;SDS011;34005;48.844;10.098;2024-01-06T15:44:53;7.38;;;5.53;;
48215;SDS011;34005;48.844;10.098;2024-01-06T15:47:22;7.18;;;5.55;;
48215;SDS011;34005;48.844;10.098;2024-01-06T15:49:50;6.35;;;5.20;;
48215;SDS011;34005;48.844;10.098;2024-01-06T15:52:18;8.60;;;5.65;;
48215;SDS011;34005;48.844;10.098;2024-01-06T15:54:48;8.35;;;5.28;;
48215;SDS011;34005;48.844;10.098;2024-01-06T15:57:15;12.95;;;7.47;;
48215;SDS011;34005;48.844;10.098;2024-01-06T15:59:43;11.70;;;7.85;;
48215;SDS011;34005;48.844;10.098;2024-01-06T16:02:11;11.93;;;7.93;;
48215;SDS011;34005;48.844;10.098;2024-01-06T16:04:40;10.07;;;6.18;;
48215;SDS011;34005;48.844;10.098;2024-01-06T16:07:08;10.48;;;8.13;;
48215;SDS011;34005;48.844;10.098;2024-01-06T16:09:35;14.02;;;11.88;;
48215;SDS011;34005;48.844;10.098;2024-01-06T16:12:03;28.60;;;19.00;;
48215;SDS011;34005;48.844;10.098;2024-01-06T16:14:32;13.57;;;9.18;;
48215;SDS011;34005;48.844;10.098;2024-01-06T16:17:01;12.55;;;9.10;;
48215;SDS011;34005;48.844;10.098;2024-01-06T16:19:30;11.10;;;6.88;;
48215;SDS011;34005;48.844;10.098;2024-01-06T16:21:59;9.20;;;7.20;;
48215;SDS011;34005;48.844;10.098;2024-01-06T16:24:42;8.30;;;6.72;;
48215;SDS011;34005;48.844;10.098;2024-01-06T16:29:58;9.25;;;7.07;;
48215;SDS011;34005;48.844;10.098;2024-01-06T16:32:54;9.57;;;6.50;;
48215;SDS011;34005;48.844;10.098;2024-01-06T16:35:22;10.63;;;7.65;;
48215;SDS011;34005;48.844;10.098;2024-01-06T16:37:51;8.43;;;7.13;;
48215;SDS011;34005;48.844;10.098;2024-01-06T16:40:18;9.55;;;7.45;;
48215;SDS011;34005;48.844;10.098;2024-01-06T16:42:46;10.02;;;7.60;;
48215;SDS011;34005;48.844;10.098;2024-01-06T16:45:18;10.65;;;7.50;;
48215;SDS011;34005;48.844;10.098;2024-01-06T16:47:45;10.30;;;7.95;;
48215;SDS011;34005;48.844;10.098;2024-01-06T16:50:13;13.27;;;8.50;;
48215;SDS011;34005;48.844;10.098;2024-01-06T16:52:41;11.40;;;7.85;;
48215;SDS011;34005;48.844;10.098;2024-01-06T16:55:10;12.90;;;8.40;;
48215;SDS011;34005;48.844;10.098;2024-01-06T16:57:38;11.40;;;8.82;;
48215;SDS011;34005;48.844;10.098;2024-01-06T17:00:06;11.80;;;8.45;;
48215;SDS011;34005;48.844;10.098;2024-01-06T18:15:26;11.40;;;9.33;;
48215;SDS011;34005;48.844;10.098;2024-01-06T18:17:59;13.82;;;10.07;;
48215;SDS011;34005;48.844;10.098;2024-01-06T18:20:27;13.40;;;9.45;;
48215;SDS011;34005;48.844;10.098;2024-01-06T18:22:55;11.65;;;9.52;;
48215;SDS011;34005;48.844;10.098;2024-01-06T18:25:26;10.50;;;8.60;;
48215;SDS011;34005;48.844;10.098;2024-01-06T18:27:57;11.20;;;8.50;;
48215;SDS011;34005;48.844;10.098;2024-01-06T18:30:28;15.52;;;11.50;;
48215;SDS011;34005;48.844;10.098;2024-01-06T18:32:57;14.63;;;10.25;;
48215;SDS011;34005;48.844;10.098;2024-01-06T18:35:27;14.10;;;10.23;;
48215;SDS011;34005;48.844;10.098;2024-01-06T18:37:57;17.13;;;11.60;;
48215;SDS011;34005;48.844;10.098;2024-01-06T18:40:29;15.60;;;12.13;;
48215;SDS011;34005;48.844;10.098;2024-01-06T18:45:34;18.58;;;11.50;;
48215;SDS011;34005;48.844;10.098;2024-01-06T18:48:05;18.05;;;11.18;;
48215;SDS011;34005;48.844;10.098;2024-01-06T18:50:34;15.45;;;11.32;;
48215;SDS011;34005;48.844;10.098;2024-01-06T18:53:03;13.40;;;10.27;;
48215;SDS011;34005;48.844;10.098;2024-01-06T18:55:31;12.85;;;10.32;;
48215;SDS011;34005;48.844;10.098;2024-01-06T18:57:59;14.35;;;10.30;;
48215;SDS011;34005;48.844;10.098;2024-01-06T19:00:27;13.63;;;10.27;;
48215;SDS011;34005;48.844;10.098;2024-01-06T19:02:56;14.18;;;10.98;;
48215;SDS011;34005;48.844;10.098;2024-01-06T19:05:25;14.73;;;11.10;;
48215;SDS011;34005;48.844;10.098;2024-01-06T19:07:56;15.48;;;10.75;;
48215;SDS011;34005;48.844;10.098;2024-01-06T19:10:25;17.05;;;11.35;;
48215;SDS011;34005;48.844;10.098;2024-01-06T19:12:54;13.43;;;9.95;;
48215;SDS011;34005;48.844;10.098;2024-01-06T19:15:24;15.05;;;11.25;;
48215;SDS011;34005;48.844;10.098;2024-01-06T19:17:53;14.35;;;10.32;;
48215;SDS011;34005;48.844;10.098;2024-01-06T19:20:25;14.23;;;11.07;;
48215;SDS011;34005;48.844;10.098;2024-01-06T19:22:55;14.85;;;11.23;;
48215;SDS011;34005;48.844;10.098;2024-01-06T19:25:34;13.68;;;10.85;;
48215;SDS011;34005;48.844;10.098;2024-01-06T19:28:09;15.68;;;10.10;;
48215;SDS011;34005;48.844;10.098;2024-01-06T19:30:38;16.10;;;10.52;;
48215;SDS011;34005;48.844;10.098;2024-01-06T19:33:09;13.43;;;10.55;;
48215;SDS011;34005;48.844;10.098;2024-01-06T19:35:42;17.42;;;11.27;;
48215;SDS011;34005;48.844;10.098;2024-01-06T19:38:12;14.55;;;11.18;;
48215;SDS011;34005;48.844;10.098;2024-01-06T19:40:45;15.05;;;10.35;;
48215;SDS011;34005;48.844;10.098;2024-01-06T19:43:18;15.45;;;10.77;;
48215;SDS011;34005;48.844;10.098;2024-01-06T19:45:56;14.27;;;11.45;;
48215;SDS011;34005;48.844;10.098;2024-01-06T19:48:25;16.02;;;11.63;;
48215;SDS011;34005;48.844;10.098;2024-01-06T19:50:56;14.80;;;10.40;;
48215;SDS011;34005;48.844;10.098;2024-01-06T19:53:27;14.45;;;11.32;;
48215;SDS011;34005;48.844;10.098;2024-01-06T19:55:58;14.82;;;10.88;;
48215;SDS011;34005;48.844;10.098;2024-01-06T20:01:00;13.55;;;10.20;;
48215;SDS011;34005;48.844;10.098;2024-01-06T20:03:31;13.27;;;10.93;;
48215;SDS011;34005;48.844;10.098;2024-01-06T20:06:04;14.93;;;10.43;;
48215;SDS011;34005;48.844;10.098;2024-01-06T20:08:35;14.93;;;11.00;;
48215;SDS011;34005;48.844;10.098;2024-01-06T20:11:04;12.38;;;10.07;;
48215;SDS011;34005;48.844;10.098;2024-01-06T20:13:34;14.38;;;10.77;;
48215;SDS011;34005;48.844;10.098;2024-01-06T20:16:03;14.52;;;10.70;;
48215;SDS011;34005;48.844;10.098;2024-01-06T20:18:34;14.32;;;10.82;;